CG Hawser — NAYC — position and weather

sailwx.info

Track history (hours):
 
Tides and Currents Weather Stations Pressure Air Temp Water Temp Dewpoint Dewpoint Depression Visibility Wind Speed Wind Dir Waves Ship Positions

CG Hawser

Last reported at 2017-Sep-24 15:05 UTC. Time now 2017-Oct-17 11:50 UTC.
Position N 40°40' W 074°05'.
Warning: this ship's position is 22 days out of date.

Length 19 m; draft 2 m.

Type: Military. MMSI: 366999973.

Date/timePositionNaut miles runAvg speedWind from/ knotsBaromVisibWave heightAir tempDewpointWater temp
2017-Sep-24 15:05N 40°40' W 074°05'0 0.3
2017-Sep-24 15:00N 40°40' W 074°05'3 5.5
2017-Sep-24 14:30N 40°41' W 074°02'4 7.0
2017-Sep-24 14:00N 40°43' W 073°58'3 6.9
2017-Sep-24 13:30N 40°47' W 073°56'3 6.3
2017-Sep-24 12:57N 40°48' W 073°52'  
2017-Sep-20 16:55N 41°39' W 071°19'3 7.5
2017-Sep-20 16:28N 41°40' W 071°23'2 3.2
2017-Sep-20 15:59N 41°41' W 071°25'0 0.0
2017-Sep-20 15:23N 41°41' W 071°25'0 0.0
2017-Sep-20 14:53N 41°41' W 071°25'0 0.0
2017-Sep-20 13:59N 41°41' W 071°25'0 0.0
2017-Sep-20 13:29N 41°41' W 071°25'0 0.0
2017-Sep-20 12:59N 41°41' W 071°25'0 0.0
2017-Sep-20 12:29N 41°41' W 071°25'0 0.0
2017-Sep-20 11:58N 41°41' W 071°25'0 0.0
2017-Sep-20 11:29N 41°41' W 071°25'0 0.0
2017-Sep-20 10:58N 41°41' W 071°25'0 0.0
2017-Sep-20 10:25N 41°41' W 071°25'0 0.0
2017-Sep-20 09:55N 41°41' W 071°25'0 0.0
2017-Sep-20 09:25N 41°41' W 071°25'0 0.0
2017-Sep-20 08:55N 41°41' W 071°25'0 0.1
2017-Sep-20 08:26N 41°41' W 071°25'0 0.0
2017-Sep-20 07:56N 41°41' W 071°25'0 0.0
2017-Sep-20 07:26N 41°41' W 071°25'0 0.0
2017-Sep-20 06:56N 41°41' W 071°25'0 0.0
2017-Sep-20 06:25N 41°41' W 071°25'0 0.0
2017-Sep-20 05:55N 41°41' W 071°25'0 0.0
2017-Sep-20 05:26N 41°41' W 071°25'0 0.0
2017-Sep-20 04:55N 41°41' W 071°25'0 0.0
2017-Sep-20 04:25N 41°41' W 071°25'0 0.0
2017-Sep-20 03:55N 41°41' W 071°25'0 0.0
2017-Sep-20 03:26N 41°41' W 071°25'0 0.0
2017-Sep-20 02:49N 41°41' W 071°25'0 0.0
2017-Sep-20 02:25N 41°41' W 071°25'0 0.1
2017-Sep-20 01:56N 41°41' W 071°25'0 0.0
2017-Sep-20 01:20N 41°41' W 071°25'0 0.1
2017-Sep-20 00:56N 41°41' W 071°25'0 0.1
2017-Sep-20 00:26N 41°41' W 071°25'0 0.1
2017-Sep-19 23:56N 41°41' W 071°25'0 0.0
2017-Sep-19 23:26N 41°41' W 071°25'0 0.0
2017-Sep-19 22:56N 41°41' W 071°25'0 0.0
2017-Sep-19 22:25N 41°41' W 071°25'0 0.0
2017-Sep-19 21:56N 41°41' W 071°25'0 0.0
2017-Sep-19 21:26N 41°41' W 071°25'0 0.0
2017-Sep-19 20:56N 41°41' W 071°25'0 0.0
2017-Sep-19 20:26N 41°41' W 071°25'0 0.0
2017-Sep-19 19:55N 41°41' W 071°25'0 0.0
2017-Sep-19 19:07N 41°41' W 071°25'0 0.1
2017-Sep-19 18:55N 41°41' W 071°25'0 0.0
2017-Sep-19 18:25N 41°41' W 071°25'0 0.0
2017-Sep-19 17:55N 41°41' W 071°25'0 0.0
2017-Sep-19 17:26N 41°41' W 071°25'0 0.0
2017-Sep-19 16:50N 41°41' W 071°25'0 0.0
2017-Sep-19 16:26N 41°41' W 071°25'0 0.0
2017-Sep-19 15:57N 41°41' W 071°25'0 0.0
2017-Sep-19 15:26N 41°41' W 071°25'0 0.0
2017-Sep-19 14:56N 41°41' W 071°25'0 0.0
2017-Sep-19 14:26N 41°41' W 071°25'0 0.1
2017-Sep-19 13:56N 41°41' W 071°25'1 2.4
2017-Sep-19 13:30N 41°40' W 071°24'4 8.0
2017-Sep-19 13:00N 41°36' W 071°23'1 0.0
2017-Sep-18 17:36N 41°35' W 071°23'  
Track history (hours):
 
Tides and Currents Weather Stations Pressure Air Temp Water Temp Dewpoint Dewpoint Depression Visibility Wind Speed Wind Dir Waves Ship Positions

CG Hawser

Last reported at 2017-Sep-24 15:05 UTC. Time now 2017-Oct-17 11:50 UTC.
Position N 40°40' W 074°05'.
Warning: this ship's position is 22 days out of date.

Length 19 m; draft 2 m.

Type: Military. MMSI: 366999973.

Date/timePositionNaut miles runAvg speedWind from/ knotsBaromVisibWave heightAir tempDewpointWater temp
2017-Sep-24 15:05N 40°40' W 074°05'0 0.3
2017-Sep-24 15:00N 40°40' W 074°05'3 5.5
2017-Sep-24 14:30N 40°41' W 074°02'4 7.0
2017-Sep-24 14:00N 40°43' W 073°58'3 6.9
2017-Sep-24 13:30N 40°47' W 073°56'3 6.3
2017-Sep-24 12:57N 40°48' W 073°52'  
2017-Sep-20 16:55N 41°39' W 071°19'3 7.5
2017-Sep-20 16:28N 41°40' W 071°23'2 3.2
2017-Sep-20 15:59N 41°41' W 071°25'0 0.0
2017-Sep-20 15:23N 41°41' W 071°25'0 0.0
2017-Sep-20 14:53N 41°41' W 071°25'0 0.0
2017-Sep-20 13:59N 41°41' W 071°25'0 0.0
2017-Sep-20 13:29N 41°41' W 071°25'0 0.0
2017-Sep-20 12:59N 41°41' W 071°25'0 0.0
2017-Sep-20 12:29N 41°41' W 071°25'0 0.0
2017-Sep-20 11:58N 41°41' W 071°25'0 0.0
2017-Sep-20 11:29N 41°41' W 071°25'0 0.0
2017-Sep-20 10:58N 41°41' W 071°25'0 0.0
2017-Sep-20 10:25N 41°41' W 071°25'0 0.0
2017-Sep-20 09:55N 41°41' W 071°25'0 0.0
2017-Sep-20 09:25N 41°41' W 071°25'0 0.0
2017-Sep-20 08:55N 41°41' W 071°25'0 0.1
2017-Sep-20 08:26N 41°41' W 071°25'0 0.0
2017-Sep-20 07:56N 41°41' W 071°25'0 0.0
2017-Sep-20 07:26N 41°41' W 071°25'0 0.0
2017-Sep-20 06:56N 41°41' W 071°25'0 0.0
2017-Sep-20 06:25N 41°41' W 071°25'0 0.0
2017-Sep-20 05:55N 41°41' W 071°25'0 0.0
2017-Sep-20 05:26N 41°41' W 071°25'0 0.0
2017-Sep-20 04:55N 41°41' W 071°25'0 0.0
2017-Sep-20 04:25N 41°41' W 071°25'0 0.0
2017-Sep-20 03:55N 41°41' W 071°25'0 0.0
2017-Sep-20 03:26N 41°41' W 071°25'0 0.0
2017-Sep-20 02:49N 41°41' W 071°25'0 0.0
2017-Sep-20 02:25N 41°41' W 071°25'0 0.1
2017-Sep-20 01:56N 41°41' W 071°25'0 0.0
2017-Sep-20 01:20N 41°41' W 071°25'0 0.1
2017-Sep-20 00:56N 41°41' W 071°25'0 0.1
2017-Sep-20 00:26N 41°41' W 071°25'0 0.1
2017-Sep-19 23:56N 41°41' W 071°25'0 0.0
2017-Sep-19 23:26N 41°41' W 071°25'0 0.0
2017-Sep-19 22:56N 41°41' W 071°25'0 0.0
2017-Sep-19 22:25N 41°41' W 071°25'0 0.0
2017-Sep-19 21:56N 41°41' W 071°25'0 0.0
2017-Sep-19 21:26N 41°41' W 071°25'0 0.0
2017-Sep-19 20:56N 41°41' W 071°25'0 0.0
2017-Sep-19 20:26N 41°41' W 071°25'0 0.0
2017-Sep-19 19:55N 41°41' W 071°25'0 0.0
2017-Sep-19 19:07N 41°41' W 071°25'0 0.1
2017-Sep-19 18:55N 41°41' W 071°25'0 0.0
2017-Sep-19 18:25N 41°41' W 071°25'0 0.0
2017-Sep-19 17:55N 41°41' W 071°25'0 0.0
2017-Sep-19 17:26N 41°41' W 071°25'0 0.0
2017-Sep-19 16:50N 41°41' W 071°25'0 0.0
2017-Sep-19 16:26N 41°41' W 071°25'0 0.0
2017-Sep-19 15:57N 41°41' W 071°25'0 0.0
2017-Sep-19 15:26N 41°41' W 071°25'0 0.0
2017-Sep-19 14:56N 41°41' W 071°25'0 0.0
2017-Sep-19 14:26N 41°41' W 071°25'0 0.1
2017-Sep-19 13:56N 41°41' W 071°25'1 2.4
2017-Sep-19 13:30N 41°40' W 071°24'4 8.0
2017-Sep-19 13:00N 41°36' W 071°23'1 0.0
2017-Sep-18 17:36N 41°35' W 071°23'  

Dump ship's entire track history